createdAt,value
2022-08-10T00:02:27.816Z,3.60
2022-08-10T00:07:30.430Z,3.60
2022-08-10T00:12:54.289Z,3.10
2022-08-10T00:17:57.842Z,3.50
2022-08-10T00:23:00.281Z,3.50
2022-08-10T00:28:04.187Z,3.30
2022-08-10T00:33:06.280Z,2.90
2022-08-10T00:38:09.034Z,3.40
2022-08-10T00:43:11.043Z,3.40
2022-08-10T00:48:12.990Z,3.00
2022-08-10T00:53:15.168Z,4.00
2022-08-10T00:58:17.219Z,4.20
2022-08-10T01:04:42.070Z,3.80
2022-08-10T01:08:52.136Z,4.10
2022-08-10T01:14:06.065Z,3.60
2022-08-10T01:19:40.425Z,3.00
2022-08-10T01:25:00.777Z,3.30
2022-08-10T01:30:11.515Z,3.60
2022-08-10T01:35:16.593Z,3.50
2022-08-10T01:40:22.694Z,3.60
2022-08-10T01:45:25.419Z,3.70
2022-08-10T01:55:34.892Z,4.00
2022-08-10T02:00:39.405Z,4.00
2022-08-10T02:05:43.463Z,3.80
2022-08-10T02:10:46.839Z,5.20
2022-08-10T02:16:01.848Z,6.50
2022-08-10T02:21:05.259Z,5.50
2022-08-10T02:26:09.758Z,6.00
2022-08-10T02:31:14.987Z,5.20
2022-08-10T02:36:17.831Z,5.90
2022-08-10T02:42:18.794Z,6.10
2022-08-10T02:46:59.952Z,4.70
2022-08-10T02:52:09.201Z,4.80
2022-08-10T02:57:16.297Z,4.70
2022-08-10T03:02:38.878Z,4.40
2022-08-10T03:07:50.211Z,3.70
2022-08-10T03:13:00.158Z,3.70
2022-08-10T03:18:03.349Z,3.80
2022-08-10T03:23:10.247Z,4.60
2022-08-10T03:28:20.385Z,3.90
2022-08-10T03:33:26.648Z,3.70
2022-08-10T03:38:28.912Z,3.90
2022-08-10T03:43:31.196Z,4.20
2022-08-10T03:48:49.001Z,4.40
2022-08-10T03:54:05.734Z,3.70
2022-08-10T03:59:12.288Z,3.70
2022-08-10T04:04:17.811Z,4.70
2022-08-10T04:09:43.235Z,4.60
2022-08-10T04:14:50.886Z,4.10
2022-08-10T04:19:56.141Z,6.00
2022-08-10T04:25:00.590Z,3.90
2022-08-10T04:30:02.940Z,4.20
2022-08-10T04:40:24.887Z,3.50
2022-08-10T04:45:47.417Z,2.40
2022-08-10T04:50:52.816Z,2.40
2022-08-10T04:55:55.857Z,2.70
2022-08-10T05:00:57.924Z,2.20
2022-08-10T05:05:59.998Z,2.70
2022-08-10T05:11:03.656Z,2.60
2022-08-10T05:16:05.774Z,2.60
2022-08-10T05:21:09.316Z,2.20
2022-08-10T05:26:11.503Z,3.20
2022-08-10T05:31:18.918Z,2.50
2022-08-10T05:36:34.345Z,2.70
2022-08-10T05:41:41.499Z,2.70
2022-08-10T05:46:46.878Z,2.70
2022-08-10T05:51:49.112Z,3.30
2022-08-10T05:56:54.259Z,3.00
2022-08-10T06:02:32.732Z,2.90
2022-08-10T06:07:28.676Z,3.10
2022-08-10T06:12:32.219Z,3.50
2022-08-10T06:17:38.268Z,3.50
2022-08-10T06:22:40.361Z,3.00
2022-08-10T06:27:43.509Z,3.40
2022-08-10T06:32:45.880Z,3.30
2022-08-10T06:37:50.699Z,3.70
2022-08-10T06:42:54.727Z,2.80
2022-08-10T06:48:04.161Z,3.10
2022-08-10T06:53:13.206Z,3.30
2022-08-10T06:58:15.397Z,3.40
2022-08-10T07:03:19.033Z,2.90
2022-08-10T07:08:28.156Z,3.70
2022-08-10T07:14:15.428Z,3.70
2022-08-10T07:18:58.790Z,3.10
2022-08-10T07:24:07.611Z,3.10
2022-08-10T07:29:26.577Z,2.90
2022-08-10T07:34:35.628Z,2.50
2022-08-10T07:39:58.299Z,3.50
2022-08-10T07:45:05.187Z,2.60
2022-08-10T07:50:21.981Z,2.90
2022-08-10T07:56:01.868Z,2.60
2022-08-10T08:00:58.441Z,3.20
2022-08-10T08:06:11.495Z,2.50
2022-08-10T08:11:25.498Z,2.50
2022-08-10T08:16:29.408Z,2.60
2022-08-10T08:24:07.375Z,2.30
2022-08-10T08:26:58.189Z,1.70
2022-08-10T08:32:06.348Z,1.90
2022-08-10T08:38:32.171Z,2.20
2022-08-10T08:43:00.898Z,2.40
2022-08-10T08:48:29.972Z,2.00
2022-08-10T08:54:02.284Z,2.00
2022-08-10T08:59:11.038Z,2.30
2022-08-10T09:04:54.156Z,1.30
2022-08-10T09:10:26.158Z,1.80
2022-08-10T09:16:09.408Z,1.90
2022-08-10T09:21:58.673Z,2.20
2022-08-10T09:27:29.570Z,1.40
2022-08-10T09:36:14.151Z,1.80
2022-08-10T09:38:55.884Z,2.00
2022-08-10T09:56:19.070Z,1.60
2022-08-10T10:02:03.290Z,2.00
2022-08-10T10:07:16.295Z,1.60
2022-08-10T10:12:29.070Z,2.00
2022-08-10T10:17:46.921Z,1.70
2022-08-10T10:23:10.477Z,1.90
2022-08-10T10:29:19.585Z,1.50
2022-08-10T10:34:33.811Z,1.60
2022-08-10T10:39:44.647Z,1.30
2022-08-10T10:44:46.623Z,1.30
2022-08-10T10:50:00.606Z,1.40
2022-08-10T10:55:34.670Z,1.30
2022-08-10T11:01:03.941Z,1.80
2022-08-10T11:06:39.739Z,1.80
2022-08-10T11:12:01.673Z,1.70
2022-08-10T11:17:46.211Z,1.80
2022-08-10T11:23:12.513Z,1.70
2022-08-10T11:28:16.471Z,1.40
2022-08-10T11:34:48.870Z,2.20
2022-08-10T11:39:49.683Z,1.70
2022-08-10T11:45:05.730Z,1.70
2022-08-10T11:50:10.700Z,1.70
2022-08-10T11:55:20.740Z,1.60
2022-08-10T12:00:24.627Z,2.70
2022-08-10T12:05:46.588Z,1.70
2022-08-10T12:10:57.069Z,1.50
2022-08-10T12:16:11.672Z,1.80
2022-08-10T12:21:55.619Z,1.50
2022-08-10T12:27:16.298Z,1.80
2022-08-10T12:32:36.648Z,1.80
2022-08-10T12:37:51.256Z,0.80
2022-08-10T12:44:04.408Z,1.10
2022-08-10T12:48:43.848Z,2.70
2022-08-10T12:53:51.657Z,1.20
2022-08-10T12:58:59.808Z,1.20
2022-08-10T13:04:21.025Z,1.30
2022-08-10T13:09:26.947Z,1.40
2022-08-10T13:14:38.283Z,1.30
2022-08-10T13:19:55.468Z,1.40
2022-08-10T13:25:02.219Z,1.10
2022-08-10T13:30:07.130Z,1.70
2022-08-10T13:35:20.772Z,1.70
2022-08-10T13:40:23.854Z,1.10
2022-08-10T13:45:26.402Z,1.20
2022-08-10T13:50:35.719Z,1.10
2022-08-10T13:55:53.809Z,1.30
2022-08-10T14:01:00.488Z,1.30
2022-08-10T14:06:07.452Z,1.00
2022-08-10T14:11:13.629Z,1.20
2022-08-10T14:16:17.293Z,1.20
2022-08-10T14:21:20.478Z,1.00
2022-08-10T14:26:26.438Z,1.30
2022-08-10T14:31:34.344Z,1.10
2022-08-10T14:36:54.809Z,1.30
2022-08-10T14:42:03.105Z,1.30
2022-08-10T14:47:53.359Z,1.30
2022-08-10T14:52:43.990Z,0.90
2022-08-10T14:58:19.481Z,1.30
2022-08-10T15:03:58.026Z,1.20
2022-08-10T15:08:37.865Z,1.40
2022-08-10T15:14:40.961Z,1.20
2022-08-10T15:20:01.427Z,1.00
2022-08-10T15:24:57.404Z,1.20
2022-08-10T15:30:00.035Z,1.30
2022-08-10T15:35:25.692Z,1.00
2022-08-10T15:40:32.447Z,0.90
2022-08-10T15:45:45.714Z,1.10
2022-08-10T15:51:06.001Z,1.20
2022-08-10T15:56:28.159Z,1.30
2022-08-10T16:02:13.373Z,1.40
2022-08-10T16:07:15.445Z,1.10
2022-08-10T16:12:34.086Z,1.20
2022-08-10T16:17:54.422Z,1.30
2022-08-10T16:23:07.493Z,1.00
2022-08-10T16:28:23.429Z,1.80
2022-08-10T16:33:53.725Z,0.90
2022-08-10T16:38:57.504Z,1.40
2022-08-10T16:44:03.881Z,1.40
2022-08-10T16:49:07.472Z,1.30
2022-08-10T16:54:10.256Z,1.30
2022-08-10T16:59:17.868Z,1.10
2022-08-10T17:04:23.887Z,1.20
2022-08-10T17:09:30.071Z,1.30
2022-08-10T17:14:33.794Z,1.20
2022-08-10T17:19:40.889Z,1.40
2022-08-10T17:25:11.545Z,1.10
2022-08-10T17:30:16.083Z,1.50
2022-08-10T17:35:43.554Z,1.20
2022-08-10T17:41:15.323Z,1.30
2022-08-10T17:46:18.402Z,1.70
2022-08-10T17:51:21.379Z,1.20
2022-08-10T17:56:23.955Z,1.30
2022-08-10T18:01:40.242Z,1.70
2022-08-10T18:06:56.448Z,1.40
2022-08-10T18:12:02.301Z,1.30
2022-08-10T18:17:23.068Z,1.90
2022-08-10T18:28:01.125Z,2.30
2022-08-10T18:32:55.083Z,2.00
2022-08-10T18:38:01.018Z,1.80
2022-08-10T18:44:02.911Z,1.90
2022-08-10T18:48:38.576Z,3.60
2022-08-10T18:53:47.518Z,2.60
2022-08-10T18:59:11.678Z,2.60
2022-08-10T19:04:56.474Z,2.20
2022-08-10T19:10:30.384Z,2.70
2022-08-10T19:15:42.617Z,2.50
2022-08-10T19:20:55.011Z,2.10
2022-08-10T19:26:44.757Z,3.10
2022-08-10T19:32:44.837Z,3.00
2022-08-10T19:38:16.386Z,4.30
2022-08-10T19:49:13.646Z,3.20
2022-08-10T19:54:26.526Z,3.80
2022-08-10T20:00:19.040Z,3.00
2022-08-10T20:05:38.578Z,3.20
2022-08-10T20:10:50.282Z,3.20
2022-08-10T20:16:05.462Z,3.70
2022-08-10T20:21:17.228Z,3.60
2022-08-10T20:26:35.798Z,4.70
2022-08-10T20:31:55.760Z,4.00
2022-08-10T20:37:06.279Z,4.10
2022-08-10T20:42:34.660Z,3.70
2022-08-10T20:48:07.378Z,3.60
2022-08-10T20:53:50.238Z,3.80
2022-08-10T20:59:16.288Z,4.40
2022-08-10T21:04:54.511Z,5.10
2022-08-10T21:10:05.956Z,4.90
2022-08-10T21:15:27.471Z,5.40
2022-08-10T21:20:47.090Z,3.70
2022-08-10T21:26:09.771Z,5.10
2022-08-10T21:31:30.115Z,3.80
2022-08-10T21:36:35.083Z,4.20
2022-08-10T21:42:17.124Z,3.80
2022-08-10T21:48:30.510Z,3.60
2022-08-10T21:54:05.559Z,3.80
2022-08-10T21:59:35.259Z,3.80
2022-08-10T22:04:58.672Z,3.50
2022-08-10T22:10:22.810Z,3.30
2022-08-10T22:16:09.856Z,3.80
2022-08-10T22:22:19.915Z,4.00
2022-08-10T22:27:54.482Z,3.40
2022-08-10T22:33:33.697Z,3.50
2022-08-10T22:40:11.866Z,3.00
2022-08-10T22:45:03.739Z,4.50
2022-08-10T22:50:10.186Z,4.80
2022-08-10T22:55:37.270Z,4.20
2022-08-10T23:00:39.614Z,4.00
2022-08-10T23:06:04.115Z,4.20
2022-08-10T23:11:08.079Z,3.60
2022-08-10T23:16:39.651Z,3.40
2022-08-10T23:22:03.330Z,3.60
2022-08-10T23:27:37.656Z,4.30
2022-08-10T23:32:46.693Z,3.90
2022-08-10T23:37:49.343Z,3.90
2022-08-10T23:42:52.433Z,3.50
2022-08-10T23:48:01.578Z,4.20
2022-08-10T23:53:13.382Z,3.20
2022-08-10T23:58:31.534Z,4.20
